PEV107 LOWW-LSZR
Flight info
| Callsign | PEV107 |
|---|---|
| Flight time | N/A |
| Altitude | 30000 |
| Route | SOVIL1E SOVIL DCT SITNI DCT BAGSI DCT MATIG DCT TRAUN L856 KPT KPT4H |
| Aircraft | E170/M-VGDW/C |
Departure
| Time | 2026-05-05 18:46 |
|---|---|
| Airport | Vienna International Airport (LOWW) |
Arrival
| Time | N/A |
|---|---|
| Airport | Sankt Gallen Altenrhein Airport (LSZR) |
| Time | Latitude | Longitude | Altitude | Speed | Heading |
|---|---|---|---|---|---|
| 2026-05-05 18:12 | 48.11969 | 16.55838 | 590 ft | 0 kts | 302° |
| 2026-05-05 18:19 | 48.11969 | 16.55839 | 590 ft | 0 kts | 302° |
| 2026-05-05 18:26 | 48.11969 | 16.55840 | 590 ft | 0 kts | 302° |
| 2026-05-05 18:33 | 48.11968 | 16.55840 | 590 ft | 0 kts | 302° |
| 2026-05-05 18:34 | 48.11968 | 16.55841 | 590 ft | 0 kts | 302° |
| 2026-05-05 18:37 | 48.11961 | 16.55859 | 590 ft | 4 kts | 300° |
| 2026-05-05 18:37 | 48.11949 | 16.55895 | 591 ft | 4 kts | 290° |
| 2026-05-05 18:37 | 48.11947 | 16.55932 | 591 ft | 4 kts | 243° |
| 2026-05-05 18:38 | 48.11954 | 16.55942 | 591 ft | 0 kts | 206° |
| 2026-05-05 18:40 | 48.11940 | 16.55932 | 591 ft | 6 kts | 206° |
| 2026-05-05 18:40 | 48.11887 | 16.55894 | 593 ft | 9 kts | 205° |
| 2026-05-05 18:40 | 48.11828 | 16.55851 | 595 ft | 10 kts | 207° |
| 2026-05-05 18:40 | 48.11766 | 16.55852 | 597 ft | 10 kts | 134° |
| 2026-05-05 18:41 | 48.11725 | 16.55973 | 599 ft | 16 kts | 117° |
| 2026-05-05 18:41 | 48.11671 | 16.56138 | 597 ft | 19 kts | 115° |
| 2026-05-05 18:41 | 48.11612 | 16.56321 | 597 ft | 19 kts | 115° |
| 2026-05-05 18:41 | 48.11557 | 16.56491 | 596 ft | 19 kts | 116° |
| 2026-05-05 18:42 | 48.11497 | 16.56673 | 599 ft | 19 kts | 116° |
| 2026-05-05 18:42 | 48.11441 | 16.56846 | 600 ft | 18 kts | 116° |
| 2026-05-05 18:42 | 48.11389 | 16.57006 | 603 ft | 16 kts | 116° |
| 2026-05-05 18:42 | 48.11336 | 16.57170 | 603 ft | 15 kts | 116° |
| 2026-05-05 18:43 | 48.11302 | 16.57281 | 614 ft | 11 kts | 97° |
| 2026-05-05 18:43 | 48.11355 | 16.57361 | 611 ft | 14 kts | 25° |
| 2026-05-05 18:43 | 48.11456 | 16.57434 | 608 ft | 17 kts | 26° |
| 2026-05-05 18:43 | 48.11552 | 16.57453 | 609 ft | 14 kts | 345° |
| 2026-05-05 18:44 | 48.11661 | 16.57406 | 613 ft | 18 kts | 343° |
| 2026-05-05 18:44 | 48.11773 | 16.57365 | 606 ft | 10 kts | 0° |
| 2026-05-05 18:44 | 48.11818 | 16.57447 | 603 ft | 15 kts | 74° |
| 2026-05-05 18:44 | 48.11849 | 16.57613 | 611 ft | 17 kts | 75° |
| 2026-05-05 18:45 | 48.11852 | 16.57798 | 605 ft | 19 kts | 114° |
| 2026-05-05 18:45 | 48.11769 | 16.57909 | 605 ft | 16 kts | 163° |
| 2026-05-05 18:45 | 48.11462 | 16.58037 | 602 ft | 82 kts | 164° |
| 2026-05-05 18:45 | 48.10731 | 16.58345 | 770 ft | 122 kts | 166° |
| 2026-05-05 18:46 | 48.09887 | 16.58657 | 1465 ft | 130 kts | 168° |
| 2026-05-05 18:46 | 48.08984 | 16.58961 | 2160 ft | 137 kts | 171° |
| 2026-05-05 18:46 | 48.08046 | 16.59539 | 2695 ft | 164 kts | 149° |
| 2026-05-05 18:46 | 48.07491 | 16.60386 | 3064 ft | 179 kts | 134° |
| 2026-05-05 18:47 | 48.06799 | 16.61935 | 3851 ft | 179 kts | 131° |
| 2026-05-05 18:47 | 48.06125 | 16.63436 | 4812 ft | 170 kts | 132° |
| 2026-05-05 18:47 | 48.05266 | 16.64785 | 4984 ft | 189 kts | 158° |
| 2026-05-05 18:47 | 48.03978 | 16.65049 | 5019 ft | 192 kts | 195° |
| 2026-05-05 18:48 | 48.02850 | 16.63990 | 5031 ft | 198 kts | 225° |
| 2026-05-05 18:48 | 48.01888 | 16.62494 | 5059 ft | 199 kts | 224° |
| 2026-05-05 18:48 | 48.01222 | 16.60694 | 5208 ft | 205 kts | 256° |
| 2026-05-05 18:48 | 48.01286 | 16.58520 | 5501 ft | 213 kts | 271° |
| 2026-05-05 18:49 | 48.01419 | 16.56312 | 5795 ft | 213 kts | 270° |
| 2026-05-05 18:49 | 48.01538 | 16.54089 | 6077 ft | 218 kts | 269° |
| 2026-05-05 18:49 | 48.01644 | 16.51840 | 6333 ft | 218 kts | 269° |
| 2026-05-05 18:49 | 48.01754 | 16.49568 | 6586 ft | 220 kts | 269° |
| 2026-05-05 18:50 | 48.01859 | 16.47294 | 6839 ft | 220 kts | 270° |
| 2026-05-05 18:50 | 48.01958 | 16.45024 | 7203 ft | 219 kts | 270° |
| 2026-05-05 18:50 | 48.02052 | 16.42739 | 7570 ft | 223 kts | 270° |
| 2026-05-05 18:50 | 48.02145 | 16.40427 | 7951 ft | 223 kts | 270° |
| 2026-05-05 18:51 | 48.02236 | 16.38095 | 8314 ft | 227 kts | 270° |
| 2026-05-05 18:51 | 48.02329 | 16.35776 | 8845 ft | 223 kts | 270° |
| 2026-05-05 18:51 | 48.02421 | 16.33462 | 9381 ft | 222 kts | 271° |
| 2026-05-05 18:51 | 48.02514 | 16.31195 | 9875 ft | 221 kts | 270° |
| 2026-05-05 18:52 | 48.02581 | 16.29658 | 10199 ft | 220 kts | 270° |